Time,TemperatureF,DewpointF,PressureIn,WindDirection,WindDirectionDegrees,WindSpeedMPH,WindSpeedGustMPH,Humidity,HourlyPrecipIn,Conditions,Clouds,dailyrainin,SoftwareType,DateUTC
2013-10-19 00:00:00,56.7,24.7,27.39,North,0,0.0,0.0,29,0.00,,,0.00,WUHU216HW,2013-10-19 07:00:00,
2013-10-19 00:05:00,56.7,24.7,27.40,North,0,0.0,0.0,29,0.00,,,0.00,WUHU216HW,2013-10-19 07:05:00,
2013-10-19 00:10:00,56.7,24.7,27.40,North,0,0.0,0.0,29,0.00,,,0.00,WUHU216HW,2013-10-19 07:10:00,
2013-10-19 00:30:00,55.1,24.2,27.39,North,0,0.0,0.0,30,0.00,,,0.00,WUHU216HW,2013-10-19 07:30:00,
2013-10-19 00:35:00,55.1,24.2,27.39,North,0,0.0,0.0,30,0.00,,,0.00,WUHU216HW,2013-10-19 07:35:00,
2013-10-19 00:40:00,55.1,24.2,27.39,North,0,0.0,0.0,30,0.00,,,0.00,WUHU216HW,2013-10-19 07:40:00,
2013-10-19 01:00:00,53.5,24.2,27.39,North,0,0.0,0.0,32,0.00,,,0.00,WUHU216HW,2013-10-19 08:00:00,
2013-10-19 01:05:00,53.5,24.2,27.39,North,0,0.0,0.0,32,0.00,,,0.00,WUHU216HW,2013-10-19 08:05:00,
2013-10-19 01:10:00,53.5,24.2,27.39,North,0,0.0,0.0,32,0.00,,,0.00,WUHU216HW,2013-10-19 08:10:00,
2013-10-19 01:30:00,52.6,23.4,27.40,East,90,0.0,0.0,32,0.00,,,0.00,WUHU216HW,2013-10-19 08:30:00,
2013-10-19 01:35:00,52.6,23.4,27.40,East,90,0.0,0.0,32,0.00,,,0.00,WUHU216HW,2013-10-19 08:35:00,
2013-10-19 01:40:00,52.6,23.4,27.40,East,90,0.0,0.0,32,0.00,,,0.00,WUHU216HW,2013-10-19 08:40:00,
2013-10-19 02:00:00,51.7,23.3,27.40,East,90,0.0,0.0,33,0.00,,,0.00,WUHU216HW,2013-10-19 09:00:00,
2013-10-19 02:05:00,51.7,23.3,27.40,East,90,0.0,0.0,33,0.00,,,0.00,WUHU216HW,2013-10-19 09:05:00,
2013-10-19 02:10:00,51.7,23.3,27.40,East,90,0.0,0.0,33,0.00,,,0.00,WUHU216HW,2013-10-19 09:10:00,
2013-10-19 02:30:00,50.8,23.2,27.40,ENE,68,0.0,0.0,34,0.00,,,0.00,WUHU216HW,2013-10-19 09:30:00,
2013-10-19 02:35:00,50.8,23.2,27.40,ENE,68,0.0,0.0,34,0.00,,,0.00,WUHU216HW,2013-10-19 09:35:00,
2013-10-19 02:40:00,50.8,23.2,27.40,ENE,68,0.0,0.0,34,0.00,,,0.00,WUHU216HW,2013-10-19 09:40:00,
2013-10-19 03:00:00,50.2,23.4,27.40,East,90,0.0,0.0,35,0.00,,,0.00,WUHU216HW,2013-10-19 10:00:00,
2013-10-19 03:05:00,50.2,23.4,27.40,East,90,0.0,0.0,35,0.00,,,0.00,WUHU216HW,2013-10-19 10:05:00,
2013-10-19 03:10:00,50.2,23.4,27.40,East,90,0.0,0.0,35,0.00,,,0.00,WUHU216HW,2013-10-19 10:10:00,
2013-10-19 03:30:00,49.3,23.3,27.40,East,90,0.0,0.0,36,0.00,,,0.00,WUHU216HW,2013-10-19 10:30:00,
2013-10-19 03:35:00,49.3,23.3,27.40,East,90,0.0,0.0,36,0.00,,,0.00,WUHU216HW,2013-10-19 10:35:00,
2013-10-19 03:40:00,49.3,23.3,27.40,East,90,0.0,0.0,36,0.00,,,0.00,WUHU216HW,2013-10-19 10:40:00,
2013-10-19 04:00:00,48.2,23.1,27.40,SE,135,0.0,0.0,37,0.00,,,0.00,WUHU216HW,2013-10-19 11:00:00,
2013-10-19 04:05:00,48.2,23.1,27.40,SE,135,0.0,0.0,37,0.00,,,0.00,WUHU216HW,2013-10-19 11:05:00,
2013-10-19 04:10:00,48.2,23.1,27.40,SE,135,0.0,0.0,37,0.00,,,0.00,WUHU216HW,2013-10-19 11:10:00,
2013-10-19 04:30:00,47.9,23.4,27.40,SE,135,0.0,0.0,38,0.00,,,0.00,WUHU216HW,2013-10-19 11:30:00,
2013-10-19 04:35:00,47.9,23.4,27.40,SE,135,0.0,0.0,38,0.00,,,0.00,WUHU216HW,2013-10-19 11:35:00,
2013-10-19 04:40:00,47.9,23.4,27.40,SE,135,0.0,0.0,38,0.00,,,0.00,WUHU216HW,2013-10-19 11:40:00,
2013-10-19 05:00:00,47.3,22.9,27.41,ENE,68,0.0,0.0,38,0.00,,,0.00,WUHU216HW,2013-10-19 12:00:00,
2013-10-19 05:05:00,47.3,22.9,27.41,ENE,68,0.0,0.0,38,0.00,,,0.00,WUHU216HW,2013-10-19 12:05:00,
2013-10-19 05:10:00,47.3,22.9,27.41,ENE,68,0.0,0.0,38,0.00,,,0.00,WUHU216HW,2013-10-19 12:10:00,
2013-10-19 05:30:00,46.8,23.0,27.41,East,90,0.0,0.0,39,0.00,,,0.00,WUHU216HW,2013-10-19 12:30:00,
2013-10-19 05:35:00,46.8,23.0,27.41,East,90,0.0,0.0,39,0.00,,,0.00,WUHU216HW,2013-10-19 12:35:00,
2013-10-19 05:40:00,46.8,23.0,27.41,East,90,0.0,0.0,39,0.00,,,0.00,WUHU216HW,2013-10-19 12:40:00,
2013-10-19 06:00:00,46.4,23.4,27.41,ESE,113,0.0,0.0,40,0.00,,,0.00,WUHU216HW,2013-10-19 13:00:00,
2013-10-19 06:05:00,46.4,23.4,27.41,ESE,113,0.0,0.0,40,0.00,,,0.00,WUHU216HW,2013-10-19 13:05:00,
2013-10-19 06:10:00,46.4,23.4,27.41,ESE,113,0.0,0.0,40,0.00,,,0.00,WUHU216HW,2013-10-19 13:10:00,
2013-10-19 06:30:00,46.6,23.6,27.42,SE,135,0.0,0.0,40,0.00,,,0.00,WUHU216HW,2013-10-19 13:30:00,
2013-10-19 06:35:00,46.6,23.6,27.42,SE,135,0.0,0.0,40,0.00,,,0.00,WUHU216HW,2013-10-19 13:35:00,
2013-10-19 06:40:00,46.6,23.6,27.42,SE,135,0.0,0.0,40,0.00,,,0.00,WUHU216HW,2013-10-19 13:40:00,
2013-10-19 07:00:00,46.8,23.8,27.42,East,90,0.0,0.0,40,0.00,,,0.00,WUHU216HW,2013-10-19 14:00:00,
2013-10-19 07:05:00,46.8,23.8,27.42,East,90,0.0,0.0,40,0.00,,,0.00,WUHU216HW,2013-10-19 14:05:00,
2013-10-19 07:10:00,46.8,23.8,27.42,East,90,0.0,0.0,40,0.00,,,0.00,WUHU216HW,2013-10-19 14:10:00,
2013-10-19 07:30:00,48.2,24.4,27.43,NE,45,0.0,0.0,39,0.00,,,0.00,WUHU216HW,2013-10-19 14:30:00,
2013-10-19 07:35:00,48.2,24.4,27.43,NE,45,0.2,0.2,39,0.00,,,0.00,WUHU216HW,2013-10-19 14:35:00,
2013-10-19 07:40:00,48.2,24.4,27.43,NE,45,0.2,0.2,39,0.00,,,0.00,WUHU216HW,2013-10-19 14:40:00,
2013-10-19 08:00:00,51.3,26.4,27.44,NE,45,0.0,0.0,38,0.00,,,0.00,WUHU216HW,2013-10-19 15:00:00,
2013-10-19 08:05:00,51.5,26.6,27.44,NE,45,0.0,0.0,38,0.00,,,0.00,WUHU216HW,2013-10-19 15:05:00,
2013-10-19 08:10:00,51.5,26.6,27.44,NE,45,0.0,0.0,38,0.00,,,0.00,WUHU216HW,2013-10-19 15:10:00,
2013-10-19 08:30:00,54.5,27.3,27.45,NE,45,0.0,0.0,35,0.00,,,0.00,WUHU216HW,2013-10-19 15:30:00,
2013-10-19 08:35:00,54.5,27.3,27.45,NE,45,0.0,0.0,35,0.00,,,0.00,WUHU216HW,2013-10-19 15:35:00,
2013-10-19 08:40:00,54.5,27.3,27.45,NE,45,0.0,0.0,35,0.00,,,0.00,WUHU216HW,2013-10-19 15:40:00,
2013-10-19 09:00:00,59.0,28.5,27.45,SW,225,0.4,0.4,31,0.00,,,0.00,WUHU216HW,2013-10-19 16:00:00,
2013-10-19 09:05:00,59.0,28.5,27.45,SW,225,0.4,0.4,31,0.00,,,0.00,WUHU216HW,2013-10-19 16:05:00,
2013-10-19 09:10:00,59.0,28.5,27.45,SW,225,0.4,0.4,31,0.00,,,0.00,WUHU216HW,2013-10-19 16:10:00,
2013-10-19 09:30:00,62.8,29.0,27.45,WNW,293,0.0,0.0,28,0.00,,,0.00,WUHU216HW,2013-10-19 16:30:00,
2013-10-19 09:35:00,62.8,29.0,27.45,West,270,0.0,0.0,28,0.00,,,0.00,WUHU216HW,2013-10-19 16:35:00,
2013-10-19 09:40:00,62.8,29.0,27.45,West,270,0.0,0.0,28,0.00,,,0.00,WUHU216HW,2013-10-19 16:40:00,
2013-10-19 10:00:00,66.4,30.2,27.44,SW,225,1.1,1.1,26,0.00,,,0.00,WUHU216HW,2013-10-19 17:00:00,
2013-10-19 10:05:00,66.4,30.2,27.44,SW,225,0.4,1.1,26,0.00,,,0.00,WUHU216HW,2013-10-19 17:05:00,
2013-10-19 10:10:00,66.4,30.2,27.44,SW,225,0.4,0.4,26,0.00,,,0.00,WUHU216HW,2013-10-19 17:10:00,
2013-10-19 10:30:00,69.3,28.5,27.43,WSW,248,1.3,1.3,22,0.00,,,0.00,WUHU216HW,2013-10-19 17:30:00,
2013-10-19 10:35:00,69.3,28.5,27.43,SSE,158,1.6,1.6,22,0.00,,,0.00,WUHU216HW,2013-10-19 17:35:00,
2013-10-19 10:40:00,69.3,28.5,27.43,SSE,158,1.6,1.6,22,0.00,,,0.00,WUHU216HW,2013-10-19 17:40:00,
2013-10-19 11:00:00,71.6,29.4,27.43,SSE,158,1.1,1.1,21,0.00,,,0.00,WUHU216HW,2013-10-19 18:00:00,
2013-10-19 11:05:00,71.6,29.4,27.43,SSW,203,0.9,1.1,21,0.00,,,0.00,WUHU216HW,2013-10-19 18:05:00,
2013-10-19 11:10:00,71.6,29.4,27.43,SSW,203,0.9,0.9,21,0.00,,,0.00,WUHU216HW,2013-10-19 18:10:00,
2013-10-19 11:30:00,74.7,27.8,27.41,WSW,248,1.8,1.8,18,0.00,,,0.00,WUHU216HW,2013-10-19 18:30:00,
2013-10-19 11:35:00,74.7,27.8,27.41,WSW,248,1.8,1.8,18,0.00,,,0.00,WUHU216HW,2013-10-19 18:35:00,
2013-10-19 11:40:00,74.7,27.8,27.41,WSW,248,1.8,1.8,18,0.00,,,0.00,WUHU216HW,2013-10-19 18:40:00,
2013-10-19 12:00:00,77.6,25.0,27.40,WSW,248,0.0,0.0,15,0.00,,,0.00,WUHU216HW,2013-10-19 19:00:00,
2013-10-19 12:05:00,77.6,25.0,27.40,WSW,248,1.1,1.1,15,0.00,,,0.00,WUHU216HW,2013-10-19 19:05:00,
2013-10-19 12:10:00,77.6,25.0,27.40,WSW,248,1.1,1.1,15,0.00,,,0.00,WUHU216HW,2013-10-19 19:10:00,
2013-10-19 12:30:00,79.7,26.8,27.39,SSE,158,0.4,0.4,15,0.00,,,0.00,WUHU216HW,2013-10-19 19:30:00,
2013-10-19 12:35:00,79.7,26.8,27.39,West,270,0.9,0.9,15,0.00,,,0.00,WUHU216HW,2013-10-19 19:35:00,
2013-10-19 12:40:00,79.7,26.8,27.39,West,270,0.9,0.9,15,0.00,,,0.00,WUHU216HW,2013-10-19 19:40:00,
2013-10-19 13:00:00,80.8,24.3,27.37,SW,225,2.5,2.5,13,0.00,,,0.00,WUHU216HW,2013-10-19 20:00:00,
2013-10-19 13:05:00,80.8,24.3,27.37,SW,225,2.7,2.7,13,0.00,,,0.00,WUHU216HW,2013-10-19 20:05:00,
2013-10-19 13:10:00,80.8,24.3,27.37,SW,225,2.7,2.7,13,0.00,,,0.00,WUHU216HW,2013-10-19 20:10:00,
2013-10-19 13:30:00,82.4,24.0,27.36,SSW,203,1.3,1.3,12,0.00,,,0.00,WUHU216HW,2013-10-19 20:30:00,
2013-10-19 13:35:00,82.6,24.0,27.36,SW,225,0.4,1.3,12,0.00,,,0.00,WUHU216HW,2013-10-19 20:35:00,
2013-10-19 13:40:00,82.6,24.0,27.36,SW,225,0.4,0.4,12,0.00,,,0.00,WUHU216HW,2013-10-19 20:40:00,
2013-10-19 14:00:00,83.3,21.2,27.35,WSW,248,2.2,2.2,10,0.00,,,0.00,WUHU216HW,2013-10-19 21:00:00,
2013-10-19 14:05:00,83.3,22.9,27.35,SE,135,1.3,2.2,11,0.00,,,0.00,WUHU216HW,2013-10-19 21:05:00,
2013-10-19 14:10:00,83.3,22.9,27.35,SE,135,1.3,1.3,11,0.00,,,0.00,WUHU216HW,2013-10-19 21:10:00,
2013-10-19 14:30:00,83.9,23.2,27.35,SW,225,1.8,1.8,11,0.00,,,0.00,WUHU216HW,2013-10-19 21:30:00,
2013-10-19 14:35:00,84.1,23.4,27.35,SW,225,1.8,1.8,11,0.00,,,0.00,WUHU216HW,2013-10-19 21:35:00,
2013-10-19 14:40:00,84.1,23.4,27.35,SW,225,1.8,1.8,11,0.00,,,0.00,WUHU216HW,2013-10-19 21:40:00,
2013-10-19 15:00:00,84.2,21.8,27.34,SW,225,2.7,2.7,10,0.00,,,0.00,WUHU216HW,2013-10-19 22:00:00,
2013-10-19 15:05:00,84.2,21.8,27.34,WSW,248,1.8,2.7,10,0.00,,,0.00,WUHU216HW,2013-10-19 22:05:00,
2013-10-19 15:10:00,84.2,21.8,27.34,WSW,248,1.8,1.8,10,0.00,,,0.00,WUHU216HW,2013-10-19 22:10:00,
2013-10-19 15:30:00,84.2,21.8,27.34,SW,225,2.0,2.0,10,0.00,,,0.00,WUHU216HW,2013-10-19 22:30:00,
2013-10-19 15:35:00,84.2,21.8,27.34,SW,225,2.7,2.7,10,0.00,,,0.00,WUHU216HW,2013-10-19 22:35:00,
2013-10-19 15:40:00,84.2,21.8,27.34,SW,225,2.7,2.7,10,0.00,,,0.00,WUHU216HW,2013-10-19 22:40:00,
2013-10-19 16:00:00,83.9,21.5,27.33,SW,225,1.1,1.1,8,0.00,,,0.00,WUHU216HW,2013-10-19 23:00:00,
2013-10-19 16:05:00,83.9,21.5,27.33,WSW,248,3.8,3.8,8,0.00,,,0.00,WUHU216HW,2013-10-19 23:05:00,
2013-10-19 16:10:00,83.9,21.5,27.33,WSW,248,3.8,3.8,8,0.00,,,0.00,WUHU216HW,2013-10-19 23:10:00,
2013-10-19 16:30:00,83.2,21.1,27.33,NW,315,0.7,0.7,7,0.00,,,0.00,WUHU216HW,2013-10-19 23:30:00,
2013-10-19 16:35:00,83.2,21.1,27.33,NW,315,3.4,3.4,7,0.00,,,0.00,WUHU216HW,2013-10-19 23:35:00,
2013-10-19 16:40:00,83.2,21.1,27.33,NW,315,3.4,3.4,7,0.00,,,0.00,WUHU216HW,2013-10-19 23:40:00,
2013-10-19 17:00:00,82.1,20.3,27.33,West,270,1.8,1.8,8,0.00,,,0.00,WUHU216HW,2013-10-20 00:00:00,
2013-10-19 17:05:00,82.1,20.3,27.33,WSW,248,2.2,2.2,8,0.00,,,0.00,WUHU216HW,2013-10-20 00:05:00,
2013-10-19 17:10:00,82.1,20.3,27.33,WSW,248,2.2,2.2,8,0.00,,,0.00,WUHU216HW,2013-10-20 00:10:00,
2013-10-19 17:30:00,80.1,18.6,27.33,WSW,248,1.6,1.6,10,0.00,,,0.00,WUHU216HW,2013-10-20 00:30:00,
2013-10-19 17:35:00,79.9,18.6,27.33,WSW,248,1.6,1.6,10,0.00,,,0.00,WUHU216HW,2013-10-20 00:35:00,
2013-10-19 17:40:00,79.9,18.6,27.33,WSW,248,1.6,1.6,10,0.00,,,0.00,WUHU216HW,2013-10-20 00:40:00,
2013-10-19 18:00:00,77.8,18.5,27.33,West,270,1.1,1.1,11,0.00,,,0.00,WUHU216HW,2013-10-20 01:00:00,
2013-10-19 18:05:00,77.8,18.5,27.33,West,270,1.1,1.1,11,0.00,,,0.00,WUHU216HW,2013-10-20 01:05:00,
2013-10-19 18:10:00,77.8,18.5,27.33,West,270,1.1,1.1,11,0.00,,,0.00,WUHU216HW,2013-10-20 01:10:00,
2013-10-19 18:30:00,75.6,18.5,27.34,NNE,23,0.2,0.2,12,0.00,,,0.00,WUHU216HW,2013-10-20 01:30:00,
2013-10-19 18:35:00,75.6,18.5,27.34,NNE,23,0.2,0.2,12,0.00,,,0.00,WUHU216HW,2013-10-20 01:35:00,
2013-10-19 18:40:00,75.6,18.5,27.34,NNE,23,0.2,0.2,12,0.00,,,0.00,WUHU216HW,2013-10-20 01:40:00,
2013-10-19 19:00:00,72.4,17.7,27.35,ESE,113,0.0,0.0,13,0.00,,,0.00,WUHU216HW,2013-10-20 02:00:00,
2013-10-19 19:05:00,72.4,17.7,27.35,ESE,113,0.0,0.0,13,0.00,,,0.00,WUHU216HW,2013-10-20 02:05:00,
2013-10-19 19:10:00,72.4,17.7,27.35,ESE,113,0.0,0.0,13,0.00,,,0.00,WUHU216HW,2013-10-20 02:10:00,
2013-10-19 19:30:00,69.1,20.0,27.35,East,90,0.0,0.0,16,0.00,,,0.00,WUHU216HW,2013-10-20 02:30:00,
2013-10-19 19:35:00,69.1,20.0,27.35,East,90,0.0,0.0,16,0.00,,,0.00,WUHU216HW,2013-10-20 02:35:00,
2013-10-19 19:40:00,69.1,20.0,27.35,East,90,0.0,0.0,16,0.00,,,0.00,WUHU216HW,2013-10-20 02:40:00,
2013-10-19 20:00:00,67.9,19.0,27.36,SE,135,0.0,0.0,16,0.00,,,0.00,WUHU216HW,2013-10-20 03:00:00,
2013-10-19 20:05:00,67.9,19.0,27.36,SE,135,0.0,0.0,16,0.00,,,0.00,WUHU216HW,2013-10-20 03:05:00,
2013-10-19 20:10:00,67.9,19.0,27.36,SE,135,0.0,0.0,16,0.00,,,0.00,WUHU216HW,2013-10-20 03:10:00,
2013-10-19 20:30:00,66.1,19.1,27.37,SE,135,0.0,0.0,17,0.00,,,0.00,WUHU216HW,2013-10-20 03:30:00,
2013-10-19 20:35:00,66.1,19.1,27.37,SE,135,0.0,0.0,17,0.00,,,0.00,WUHU216HW,2013-10-20 03:35:00,
2013-10-19 20:40:00,66.1,19.1,27.37,SE,135,0.0,0.0,17,0.00,,,0.00,WUHU216HW,2013-10-20 03:40:00,
2013-10-19 21:00:00,64.4,19.4,27.37,ESE,113,0.0,0.0,18,0.00,,,0.00,WUHU216HW,2013-10-20 04:00:00,
2013-10-19 21:01:00,64.4,19.4,27.37,ESE,113,0.0,0.0,18,0.00,,,0.00,WUHU216HW,2013-10-20 04:01:00,
2013-10-19 21:06:00,64.4,19.4,27.37,ESE,113,0.0,0.0,18,0.00,,,0.00,WUHU216HW,2013-10-20 04:06:00,
2013-10-19 21:30:00,63.0,18.2,27.38,ESE,113,0.0,0.0,18,0.00,,,0.00,WUHU216HW,2013-10-20 04:30:00,
2013-10-19 21:35:00,63.0,18.2,27.38,ESE,113,0.0,0.0,18,0.00,,,0.00,WUHU216HW,2013-10-20 04:35:00,
2013-10-19 21:40:00,63.0,18.2,27.38,ESE,113,0.0,0.0,18,0.00,,,0.00,WUHU216HW,2013-10-20 04:40:00,
2013-10-19 22:00:00,62.3,17.6,27.38,ENE,68,0.0,0.0,18,0.00,,,0.00,WUHU216HW,2013-10-20 05:00:00,
2013-10-19 22:05:00,62.3,17.6,27.38,ENE,68,0.0,0.0,18,0.00,,,0.00,WUHU216HW,2013-10-20 05:05:00,
2013-10-19 22:10:00,62.3,17.6,27.38,ENE,68,0.0,0.0,18,0.00,,,0.00,WUHU216HW,2013-10-20 05:10:00,
2013-10-19 22:30:00,60.1,17.4,27.38,SE,135,0.0,0.0,19,0.00,,,0.00,WUHU216HW,2013-10-20 05:30:00,
2013-10-19 22:35:00,60.1,17.4,27.38,SE,135,0.0,0.0,19,0.00,,,0.00,WUHU216HW,2013-10-20 05:35:00,
2013-10-19 22:40:00,60.1,17.4,27.38,SE,135,0.0,0.0,19,0.00,,,0.00,WUHU216HW,2013-10-20 05:40:00,
2013-10-19 23:00:00,58.0,22.0,27.38,ESE,113,0.0,0.0,25,0.00,,,0.00,WUHU216HW,2013-10-20 06:00:00,
2013-10-19 23:05:00,58.0,22.0,27.38,ESE,113,0.0,0.0,25,0.00,,,0.00,WUHU216HW,2013-10-20 06:05:00,
2013-10-19 23:10:00,58.0,22.0,27.38,ESE,113,0.0,0.0,25,0.00,,,0.00,WUHU216HW,2013-10-20 06:10:00,
2013-10-19 23:30:00,56.0,19.4,27.38,ESE,113,0.0,0.0,24,0.00,,,0.00,WUHU216HW,2013-10-20 06:30:00,
2013-10-19 23:35:00,56.0,19.4,27.38,ESE,113,0.0,0.0,24,0.00,,,0.00,WUHU216HW,2013-10-20 06:35:00,
2013-10-19 23:40:00,56.0,19.4,27.38,ESE,113,0.0,0.0,24,0.00,,,0.00,WUHU216HW,2013-10-20 06:40:00,